Time;durP1;ratioP1;P1;durP2;ratioP2;P2;SDS_P1;SDS_P2;PMS_P1;PMS_P2;Temp;Humidity;BMP_temperature;BMP_pressure;BME280_temperature;BME280_humidity;BME280_pressure;Samples;Min_cycle;Max_cycle;Signal;HPM_P1;HPM_P2
2022/06/24 00:01:27;;;;;;;;;6.00;6.00;;;;;;;;5060391;28;8849;-80
2022/06/24 00:03:54;;;;;;;;;5.40;5.40;;;;;;;;5060883;28;8881;-81
2022/06/24 00:06:21;;;;;;;;;5.60;5.60;;;;;;;;5057766;28;8853;-81
2022/06/24 00:08:53;;;;;;;;;4.00;4.00;;;;;;;;5060380;28;8855;-81
2022/06/24 00:11:29;;;;;;;;;5.40;5.40;;;;;;;;5059125;28;8874;-81
2022/06/24 00:14:08;;;;;;;;;6.00;6.00;;;;;;;;5062086;28;8879;-81
2022/06/24 00:16:54;;;;;;;;;6.60;6.60;;;;;;;;5062690;28;8875;-82
2022/06/24 00:19:22;;;;;;;;;6.00;6.00;;;;;;;;5058653;28;8868;-81
2022/06/24 00:22:06;;;;;;;;;10.00;10.00;;;;;;;;5060349;28;8857;-81
2022/06/24 00:24:36;;;;;;;;;6.60;6.60;;;;;;;;5062430;28;8853;-83
2022/06/24 00:27:18;;;;;;;;;9.80;9.00;;;;;;;;5061421;28;8859;-82
2022/06/24 00:29:45;;;;;;;;;8.80;8.80;;;;;;;;5059094;28;9637;-81
2022/06/24 00:32:13;;;;;;;;;10.60;9.00;;;;;;;;5058357;28;8835;-82
2022/06/24 00:34:41;;;;;;;;;8.80;8.80;;;;;;;;5094571;28;8871;-82
2022/06/24 00:37:25;;;;;;;;;11.20;11.20;;;;;;;;5058613;28;8870;-82
2022/06/24 00:39:53;;;;;;;;;9.00;9.00;;;;;;;;5059830;28;8860;-81
2022/06/24 00:42:22;;;;;;;;;9.20;9.20;;;;;;;;5061982;28;8866;-80
2022/06/24 00:44:54;;;;;;;;;11.00;9.80;;;;;;;;5057417;28;8892;-82
2022/06/24 00:47:22;;;;;;;;;13.20;10.60;;;;;;;;5060549;28;8864;-80
2022/06/24 00:49:50;;;;;;;;;12.60;11.00;;;;;;;;5062448;28;8868;-81
2022/06/24 00:52:18;;;;;;;;;11.80;11.80;;;;;;;;5063808;28;8856;-80
2022/06/24 00:54:46;;;;;;;;;9.00;9.00;;;;;;;;5058300;28;8997;-83
2022/06/24 00:57:14;;;;;;;;;13.00;11.60;;;;;;;;5061392;28;9021;-80
2022/06/24 00:59:43;;;;;;;;;10.00;10.00;;;;;;;;5062584;28;8855;-82
2022/06/24 01:02:11;;;;;;;;;10.00;8.80;;;;;;;;5060029;28;8821;-81
2022/06/24 01:04:38;;;;;;;;;9.00;9.00;;;;;;;;5060839;28;8880;-81
2022/06/24 01:07:06;;;;;;;;;9.20;9.20;;;;;;;;5059688;28;8866;-80
2022/06/24 01:09:34;;;;;;;;;11.00;11.00;;;;;;;;5064606;28;8871;-81
2022/06/24 01:12:01;;;;;;;;;16.80;12.00;;;;;;;;5056400;28;9019;-82
2022/06/24 01:14:28;;;;;;;;;13.20;13.20;;;;;;;;5062145;28;8926;-81
2022/06/24 01:16:57;;;;;;;;;9.80;9.80;;;;;;;;5060978;28;8837;-82
2022/06/24 01:19:28;;;;;;;;;10.75;10.75;;;;;;;;5061186;28;8880;-81
2022/06/24 01:21:57;;;;;;;;;11.40;11.40;;;;;;;;5067156;28;8887;-81
2022/06/24 01:24:26;;;;;;;;;10.00;9.80;;;;;;;;5066941;28;8893;-81
2022/06/24 01:26:55;;;;;;;;;10.40;10.40;;;;;;;;5066297;28;8900;-82
2022/06/24 01:29:23;;;;;;;;;13.40;13.40;;;;;;;;5069598;28;8886;-81
2022/06/24 01:31:53;;;;;;;;;9.60;9.60;;;;;;;;5062271;28;9630;-82
2022/06/24 01:34:22;;;;;;;;;11.50;11.50;;;;;;;;5063328;28;8851;-81
2022/06/24 01:36:50;;;;;;;;;10.80;10.80;;;;;;;;5064589;28;8976;-81
2022/06/24 01:39:19;;;;;;;;;11.00;11.00;;;;;;;;5079094;28;8860;-80
2022/06/24 01:41:47;;;;;;;;;14.50;14.00;;;;;;;;5063717;28;8964;-81
2022/06/24 01:44:14;;;;;;;;;13.00;13.00;;;;;;;;5066248;28;8962;-82
2022/06/24 01:46:41;;;;;;;;;14.00;14.00;;;;;;;;5062395;28;8899;-80
2022/06/24 01:49:09;;;;;;;;;16.00;14.00;;;;;;;;5066183;28;8892;-81
2022/06/24 01:51:40;;;;;;;;;16.75;15.00;;;;;;;;5063606;28;8851;-82
2022/06/24 01:54:07;;;;;;;;;20.25;17.50;;;;;;;;5065683;28;8899;-81
2022/06/24 01:56:36;;;;;;;;;9.50;9.50;;;;;;;;5064579;28;8840;-80
2022/06/24 01:59:07;;;;;;;;;16.75;16.75;;;;;;;;5067898;28;8940;-82
2022/06/24 02:01:34;;;;;;;;;14.75;14.75;;;;;;;;5063402;28;8818;-81
2022/06/24 02:04:01;;;;;;;;;16.75;16.75;;;;;;;;5065017;28;9701;-81
2022/06/24 02:06:29;;;;;;;;;18.75;17.00;;;;;;;;5066523;28;8876;-82
2022/06/24 02:08:56;;;;;;;;;15.75;15.75;;;;;;;;5064915;28;8843;-83
2022/06/24 02:14:25;;;;;;;;;14.00;14.00;;;;;;;;5009411;28;8922;-82
2022/06/24 02:16:53;;;;;;;;;11.50;11.50;;;;;;;;5009126;28;8895;-82
2022/06/24 02:19:21;;;;;;;;;20.25;17.00;;;;;;;;5031568;28;8892;-82
2022/06/24 02:21:49;;;;;;;;;13.00;13.00;;;;;;;;5064009;28;8973;-82
2022/06/24 02:24:16;;;;;;;;;17.75;17.50;;;;;;;;5065666;28;8883;-81
2022/06/24 02:26:44;;;;;;;;;14.25;14.25;;;;;;;;5067027;28;8894;-82
2022/06/24 02:29:13;;;;;;;;;16.25;15.25;;;;;;;;5064110;28;8991;-80
2022/06/24 02:31:42;;;;;;;;;15.25;12.75;;;;;;;;5065606;28;8843;-82
2022/06/24 02:34:10;;;;;;;;;16.50;15.25;;;;;;;;5059039;28;8923;-83
2022/06/24 02:36:37;;;;;;;;;18.75;18.75;;;;;;;;5064189;28;8890;-83
2022/06/24 02:39:05;;;;;;;;;10.75;10.25;;;;;;;;5063945;28;8855;-81
2022/06/24 02:41:33;;;;;;;;;15.20;13.40;;;;;;;;5065888;28;8876;-84
2022/06/24 02:44:00;;;;;;;;;11.60;11.60;;;;;;;;5063324;28;8880;-79
2022/06/24 02:46:27;;;;;;;;;12.60;12.60;;;;;;;;5064069;28;9353;-80
2022/06/24 02:48:56;;;;;;;;;11.00;10.20;;;;;;;;5065350;28;9373;-82
2022/06/24 02:51:23;;;;;;;;;10.00;9.00;;;;;;;;5063115;28;8866;-83
2022/06/24 02:53:51;;;;;;;;;11.60;11.60;;;;;;;;5068474;28;9641;-84
2022/06/24 02:56:18;;;;;;;;;10.60;10.60;;;;;;;;5063607;28;8853;-81
2022/06/24 02:58:45;;;;;;;;;9.40;9.40;;;;;;;;5069236;28;8909;-81
2022/06/24 03:01:13;;;;;;;;;10.40;9.00;;;;;;;;5064612;28;9054;-83
2022/06/24 03:03:40;;;;;;;;;9.60;9.60;;;;;;;;5063724;28;8899;-81
2022/06/24 03:06:09;;;;;;;;;10.20;10.20;;;;;;;;5064354;28;8884;-83
2022/06/24 03:08:37;;;;;;;;;7.20;6.20;;;;;;;;5063735;28;8884;-80
2022/06/24 03:11:04;;;;;;;;;9.00;9.00;;;;;;;;5064016;28;8874;-80
2022/06/24 03:13:32;;;;;;;;;12.80;10.00;;;;;;;;5060566;28;9104;-83
2022/06/24 03:16:01;;;;;;;;;9.80;9.80;;;;;;;;5063295;28;8872;-81
2022/06/24 03:18:28;;;;;;;;;9.80;9.60;;;;;;;;5062388;28;8866;-82
2022/06/24 03:20:55;;;;;;;;;10.20;10.20;;;;;;;;5059932;28;8886;-83
2022/06/24 03:23:24;;;;;;;;;10.00;10.00;;;;;;;;5067764;28;8910;-79
2022/06/24 03:25:51;;;;;;;;;9.20;7.60;;;;;;;;5057090;28;8912;-83
2022/06/24 03:28:19;;;;;;;;;10.60;10.60;;;;;;;;5063587;28;8860;-82
2022/06/24 03:30:46;;;;;;;;;9.40;9.40;;;;;;;;5060164;28;8809;-83
2022/06/24 03:33:13;;;;;;;;;10.80;10.00;;;;;;;;5062099;28;8882;-81
2022/06/24 03:35:40;;;;;;;;;9.00;9.00;;;;;;;;5061674;28;8879;-84
2022/06/24 03:38:08;;;;;;;;;10.40;10.40;;;;;;;;5067830;28;9607;-79
2022/06/24 03:40:36;;;;;;;;;9.40;9.40;;;;;;;;5063528;28;8891;-81
2022/06/24 03:43:03;;;;;;;;;9.40;9.40;;;;;;;;5065381;28;8868;-80
2022/06/24 03:45:31;;;;;;;;;12.80;11.40;;;;;;;;5062182;28;8875;-83
2022/06/24 03:48:01;;;;;;;;;10.75;10.75;;;;;;;;5062454;28;8894;-80
2022/06/24 03:50:28;;;;;;;;;9.25;9.00;;;;;;;;5063930;28;8880;-83
2022/06/24 03:52:56;;;;;;;;;9.50;9.00;;;;;;;;5061841;28;8869;-82
2022/06/24 03:55:23;;;;;;;;;10.00;10.00;;;;;;;;5066712;28;8970;-84
2022/06/24 03:57:52;;;;;;;;;9.75;9.75;;;;;;;;5064293;28;8885;-85
2022/06/24 04:00:19;;;;;;;;;9.25;9.25;;;;;;;;5065046;28;8886;-82
2022/06/24 04:02:46;;;;;;;;;9.00;9.00;;;;;;;;5060788;28;8856;-84
2022/06/24 04:05:15;;;;;;;;;10.00;8.00;;;;;;;;5059257;28;8890;-84
2022/06/24 04:07:42;;;;;;;;;9.00;8.50;;;;;;;;5066385;28;8890;-86
2022/06/24 04:10:10;;;;;;;;;10.00;10.00;;;;;;;;5062904;28;8865;-82
2022/06/24 04:12:37;;;;;;;;;6.50;6.50;;;;;;;;5061471;28;8880;-84
2022/06/24 04:15:14;;;;;;;;;9.25;9.25;;;;;;;;5064245;28;9783;-83
2022/06/24 04:17:42;;;;;;;;;10.50;9.25;;;;;;;;5063733;28;8892;-82
2022/06/24 04:20:10;;;;;;;;;9.00;9.00;;;;;;;;5065680;28;8856;-81
2022/06/24 04:22:37;;;;;;;;;8.00;8.00;;;;;;;;5060400;28;8877;-82
2022/06/24 04:25:05;;;;;;;;;7.00;7.00;;;;;;;;5064349;28;8864;-84
2022/06/24 04:27:32;;;;;;;;;9.25;9.25;;;;;;;;5061690;28;8869;-81
2022/06/24 04:30:01;;;;;;;;;7.75;7.75;;;;;;;;5064918;28;8992;-83
2022/06/24 04:32:30;;;;;;;;;10.25;8.25;;;;;;;;5042113;28;8821;-84
2022/06/24 04:34:58;;;;;;;;;9.50;9.50;;;;;;;;5041763;28;8893;-83
2022/06/24 04:37:26;;;;;;;;;8.50;8.50;;;;;;;;5043571;28;8892;-82
2022/06/24 04:39:54;;;;;;;;;10.00;8.75;;;;;;;;5043303;28;8886;-83
2022/06/24 04:42:22;;;;;;;;;9.00;9.00;;;;;;;;5042223;28;9033;-81
2022/06/24 04:44:49;;;;;;;;;9.50;9.50;;;;;;;;5040796;28;8913;-84
2022/06/24 04:47:16;;;;;;;;;3.25;3.25;;;;;;;;5039109;28;8888;-84
2022/06/24 04:49:46;;;;;;;;;9.25;8.00;;;;;;;;5040036;28;8861;-82
2022/06/24 04:52:13;;;;;;;;;8.75;8.75;;;;;;;;5038637;28;8980;-84
2022/06/24 04:54:40;;;;;;;;;10.25;8.25;;;;;;;;5044906;28;8851;-84
2022/06/24 04:57:08;;;;;;;;;8.50;8.50;;;;;;;;5040913;28;9001;-84
2022/06/24 04:59:38;;;;;;;;;7.75;7.75;;;;;;;;5045091;28;8894;-84
2022/06/24 05:02:05;;;;;;;;;9.50;7.75;;;;;;;;5056688;28;8989;-84
2022/06/24 05:04:33;;;;;;;;;7.00;7.00;;;;;;;;5062386;28;8880;-81
2022/06/24 05:07:05;;;;;;;;;8.00;8.00;;;;;;;;5046432;28;8870;-82
2022/06/24 05:09:32;;;;;;;;;8.00;8.00;;;;;;;;5061126;28;9011;-82
2022/06/24 05:12:00;;;;;;;;;6.00;6.00;;;;;;;;5060595;28;8841;-81
2022/06/24 05:14:28;;;;;;;;;9.50;7.00;;;;;;;;5062164;28;8876;-80
2022/06/24 05:16:55;;;;;;;;;7.25;7.25;;;;;;;;5060467;28;8875;-81
2022/06/24 05:19:22;;;;;;;;;7.00;7.00;;;;;;;;5060516;28;8866;-82
2022/06/24 05:21:50;;;;;;;;;8.00;8.00;;;;;;;;5064023;28;8878;-83
2022/06/24 05:24:19;;;;;;;;;6.60;6.60;;;;;;;;5064185;28;8914;-84
2022/06/24 05:26:47;;;;;;;;;9.00;7.50;;;;;;;;5064343;28;8878;-83
2022/06/24 05:29:15;;;;;;;;;9.40;9.40;;;;;;;;5056782;28;8878;-82
2022/06/24 05:31:44;;;;;;;;;7.80;7.80;;;;;;;;5058781;28;8979;-84
2022/06/24 05:34:12;;;;;;;;;7.40;6.40;;;;;;;;5060711;28;8856;-84
2022/06/24 05:36:39;;;;;;;;;4.20;4.20;;;;;;;;5058233;28;8863;-81
2022/06/24 05:39:07;;;;;;;;;6.80;6.80;;;;;;;;5059441;28;8885;-81
2022/06/24 05:41:38;;;;;;;;;7.00;7.00;;;;;;;;5057031;28;8867;-81
2022/06/24 05:44:06;;;;;;;;;6.80;5.00;;;;;;;;5063250;28;8876;-82
2022/06/24 05:46:33;;;;;;;;;8.00;8.00;;;;;;;;5062035;28;8863;-83
2022/06/24 05:49:01;;;;;;;;;6.40;6.40;;;;;;;;5064462;28;8854;-82
2022/06/24 05:51:29;;;;;;;;;7.80;6.00;;;;;;;;5063475;28;8898;-83
2022/06/24 05:56:43;;;;;;;;;9.20;8.80;;;;;;;;5060858;28;9619;-85
2022/06/24 05:59:10;;;;;;;;;12.20;11.00;;;;;;;;5058668;28;8890;-81
2022/06/24 06:01:37;;;;;;;;;7.60;7.60;;;;;;;;5062889;28;9491;-80
2022/06/24 06:04:05;;;;;;;;;9.00;9.00;;;;;;;;5061960;28;8862;-81
2022/06/24 06:06:32;;;;;;;;;6.40;6.40;;;;;;;;5062816;28;8914;-82
2022/06/24 06:09:04;;;;;;;;;7.80;7.00;;;;;;;;5067992;28;9624;-85
2022/06/24 06:11:31;;;;;;;;;6.60;6.60;;;;;;;;5058140;28;8886;-81
2022/06/24 06:14:00;;;;;;;;;6.20;5.80;;;;;;;;5061127;28;9686;-81
2022/06/24 06:16:28;;;;;;;;;6.20;6.00;;;;;;;;5059078;28;8887;-84
2022/06/24 06:18:56;;;;;;;;;7.40;6.60;;;;;;;;5065600;28;8876;-87
2022/06/24 06:21:23;;;;;;;;;7.80;7.80;;;;;;;;5064182;28;8866;-82
2022/06/24 06:23:52;;;;;;;;;7.60;7.60;;;;;;;;5068231;28;8848;-77
2022/06/24 06:26:19;;;;;;;;;8.80;8.80;;;;;;;;5064619;28;8881;-80
2022/06/24 06:28:46;;;;;;;;;6.80;6.80;;;;;;;;5058729;28;8924;-73
2022/06/24 06:31:15;;;;;;;;;7.00;6.00;;;;;;;;5055373;28;8827;-77
2022/06/24 06:33:42;;;;;;;;;5.80;5.80;;;;;;;;5060112;28;8899;-76
2022/06/24 06:36:11;;;;;;;;;6.60;6.60;;;;;;;;5058137;28;8897;-75
2022/06/24 06:38:39;;;;;;;;;6.40;6.40;;;;;;;;5058537;28;8880;-76
2022/06/24 06:41:06;;;;;;;;;6.20;4.60;;;;;;;;5057854;28;8886;-77
2022/06/24 06:43:33;;;;;;;;;4.00;4.00;;;;;;;;5058592;28;8870;-76
2022/06/24 06:46:00;;;;;;;;;7.00;7.00;;;;;;;;5056849;28;8897;-75
2022/06/24 06:48:29;;;;;;;;;8.00;6.80;;;;;;;;5052279;28;8877;-75
2022/06/24 06:50:57;;;;;;;;;6.00;5.60;;;;;;;;5055475;28;8891;-74
2022/06/24 06:53:25;;;;;;;;;8.00;8.00;;;;;;;;5060351;28;8886;-73
2022/06/24 06:55:53;;;;;;;;;9.40;9.40;;;;;;;;5060883;28;8874;-74
2022/06/24 06:58:21;;;;;;;;;7.00;7.00;;;;;;;;5058469;28;9631;-73
2022/06/24 07:00:49;;;;;;;;;6.60;6.60;;;;;;;;5054631;28;8827;-73
2022/06/24 07:03:16;;;;;;;;;8.60;8.60;;;;;;;;5057370;28;8876;-73
2022/06/24 07:05:45;;;;;;;;;8.00;8.00;;;;;;;;5058237;28;8876;-75
2022/06/24 07:08:13;;;;;;;;;7.20;7.20;;;;;;;;5058012;28;8876;-72
2022/06/24 07:10:42;;;;;;;;;8.00;8.00;;;;;;;;5061629;28;8926;-73
2022/06/24 07:13:10;;;;;;;;;9.00;7.00;;;;;;;;5054573;28;8893;-73
2022/06/24 07:15:37;;;;;;;;;8.00;8.00;;;;;;;;5060022;28;8883;-74
2022/06/24 07:18:05;;;;;;;;;9.75;9.75;;;;;;;;5060852;28;8876;-72
2022/06/24 07:20:33;;;;;;;;;9.60;9.60;;;;;;;;5056644;28;9266;-72
2022/06/24 07:23:02;;;;;;;;;10.00;10.00;;;;;;;;5054941;28;8865;-72
2022/06/24 07:25:30;;;;;;;;;7.80;5.80;;;;;;;;5060828;28;8869;-72
2022/06/24 07:27:58;;;;;;;;;10.60;10.60;;;;;;;;5059558;28;8902;-73
2022/06/24 07:30:25;;;;;;;;;9.60;9.60;;;;;;;;5060252;28;8865;-72
2022/06/24 07:32:52;;;;;;;;;8.40;8.40;;;;;;;;5059736;28;9636;-73
2022/06/24 07:35:20;;;;;;;;;9.00;7.80;;;;;;;;5061202;28;8835;-72
2022/06/24 07:37:47;;;;;;;;;9.80;9.80;;;;;;;;5058606;28;9005;-76
2022/06/24 07:40:16;;;;;;;;;5.00;5.00;;;;;;;;5061602;28;8941;-74
2022/06/24 07:42:43;;;;;;;;;10.00;9.20;;;;;;;;5057295;28;8887;-73
2022/06/24 07:45:13;;;;;;;;;11.40;11.40;;;;;;;;5062850;28;8882;-75
2022/06/24 07:47:40;;;;;;;;;9.80;9.40;;;;;;;;5057125;28;8855;-75
2022/06/24 07:50:08;;;;;;;;;10.20;9.00;;;;;;;;5059726;28;8879;-74
2022/06/24 07:52:35;;;;;;;;;10.20;10.20;;;;;;;;5057814;28;8876;-74
2022/06/24 07:57:49;;;;;;;;;11.00;10.60;;;;;;;;5064702;28;8832;-75
2022/06/24 08:00:18;;;;;;;;;7.00;7.00;;;;;;;;5059437;28;8881;-74
2022/06/24 08:02:45;;;;;;;;;5.80;5.80;;;;;;;;5060269;28;8872;-74
2022/06/24 08:05:13;;;;;;;;;7.80;7.80;;;;;;;;5058880;28;8850;-74
2022/06/24 08:07:41;;;;;;;;;8.60;8.60;;;;;;;;5066613;28;8881;-73
2022/06/24 08:10:09;;;;;;;;;9.40;9.40;;;;;;;;5064365;28;8841;-72
2022/06/24 08:12:36;;;;;;;;;8.00;8.00;;;;;;;;5059863;28;8872;-74
2022/06/24 08:15:07;;;;;;;;;8.60;8.60;;;;;;;;5059391;28;8971;-74
2022/06/24 08:17:34;;;;;;;;;9.00;7.60;;;;;;;;5052792;28;8947;-75
2022/06/24 08:20:01;;;;;;;;;9.80;9.80;;;;;;;;5061630;28;8868;-75
2022/06/24 08:22:28;;;;;;;;;9.20;8.60;;;;;;;;5060638;28;8862;-74
2022/06/24 08:24:56;;;;;;;;;6.00;6.00;;;;;;;;5064627;28;8872;-75
2022/06/24 08:27:23;;;;;;;;;8.60;8.60;;;;;;;;5058330;28;8886;-73
2022/06/24 08:29:50;;;;;;;;;8.60;8.60;;;;;;;;5060466;28;8930;-74
2022/06/24 08:32:19;;;;;;;;;9.00;9.00;;;;;;;;5053271;28;8809;-73
2022/06/24 08:34:47;;;;;;;;;10.20;10.00;;;;;;;;5060690;28;8866;-73
2022/06/24 08:37:14;;;;;;;;;12.80;11.00;;;;;;;;5060312;28;8947;-76
2022/06/24 08:39:42;;;;;;;;;8.00;8.00;;;;;;;;5059656;28;8912;-75
2022/06/24 08:42:12;;;;;;;;;7.20;7.20;;;;;;;;5063820;28;8941;-74
2022/06/24 08:44:40;;;;;;;;;6.20;6.20;;;;;;;;5059846;28;9742;-72
2022/06/24 08:47:08;;;;;;;;;8.60;6.80;;;;;;;;5060648;28;8888;-74
2022/06/24 08:49:36;;;;;;;;;7.20;6.60;;;;;;;;5061109;28;8859;-74
2022/06/24 08:52:07;;;;;;;;;6.60;6.60;;;;;;;;5060728;28;8876;-74
2022/06/24 08:54:34;;;;;;;;;3.00;3.00;;;;;;;;5062213;28;8853;-73
2022/06/24 08:57:02;;;;;;;;;6.20;6.20;;;;;;;;5059357;28;8887;-74
2022/06/24 08:59:29;;;;;;;;;6.80;6.80;;;;;;;;5060523;28;8906;-74
2022/06/24 09:01:57;;;;;;;;;6.00;6.00;;;;;;;;5058687;28;8855;-74
2022/06/24 09:04:24;;;;;;;;;7.80;7.80;;;;;;;;5062987;28;9630;-74
2022/06/24 09:06:54;;;;;;;;;5.40;5.40;;;;;;;;5063016;28;8885;-74
2022/06/24 09:09:25;;;;;;;;;6.00;5.00;;;;;;;;5065031;28;8868;-74
2022/06/24 09:11:56;;;;;;;;;4.60;4.60;;;;;;;;5056368;28;8859;-74
2022/06/24 09:14:23;;;;;;;;;6.00;6.00;;;;;;;;5065831;28;8876;-73
2022/06/24 09:16:51;;;;;;;;;5.40;5.40;;;;;;;;5057241;28;8876;-72
2022/06/24 09:19:18;;;;;;;;;6.20;6.20;;;;;;;;5071841;28;8860;-73
2022/06/24 09:21:46;;;;;;;;;6.00;6.00;;;;;;;;5065534;28;8874;-73
2022/06/24 09:24:15;;;;;;;;;6.40;6.40;;;;;;;;5057151;28;8872;-73
2022/06/24 09:26:43;;;;;;;;;4.40;4.40;;;;;;;;5063614;28;8909;-73
2022/06/24 09:29:13;;;;;;;;;3.20;3.20;;;;;;;;5063895;28;8866;-73
2022/06/24 09:31:41;;;;;;;;;5.20;5.20;;;;;;;;5061163;28;10165;-73
2022/06/24 09:34:10;;;;;;;;;7.20;6.80;;;;;;;;5062378;28;8871;-72
2022/06/24 09:36:40;;;;;;;;;5.60;4.60;;;;;;;;5065166;28;8864;-74
2022/06/24 09:39:11;;;;;;;;;6.00;4.20;;;;;;;;5060702;28;8882;-72
2022/06/24 09:41:47;;;;;;;;;5.00;5.00;;;;;;;;5059386;28;8851;-74
2022/06/24 09:44:15;;;;;;;;;5.40;3.40;;;;;;;;5068565;28;8896;-74
2022/06/24 09:46:43;;;;;;;;;4.40;4.40;;;;;;;;5056736;28;8834;-74
2022/06/24 09:49:13;;;;;;;;;4.00;3.80;;;;;;;;5060395;28;8863;-74
2022/06/24 09:51:43;;;;;;;;;5.80;3.60;;;;;;;;5061971;28;8876;-75
2022/06/24 09:54:11;;;;;;;;;3.40;3.40;;;;;;;;5067086;28;8969;-75
2022/06/24 09:56:39;;;;;;;;;5.40;2.80;;;;;;;;5068100;28;8862;-74
2022/06/24 10:01:53;;;;;;;;;4.40;4.00;;;;;;;;5066639;28;8821;-75
2022/06/24 10:04:22;;;;;;;;;5.00;3.00;;;;;;;;5065673;28;9621;-76
2022/06/24 10:06:51;;;;;;;;;3.80;3.80;;;;;;;;5063352;28;8860;-76
2022/06/24 10:09:23;;;;;;;;;3.20;3.20;;;;;;;;5067670;28;8872;-76
2022/06/24 10:11:52;;;;;;;;;4.80;4.80;;;;;;;;5061879;28;8845;-75
2022/06/24 10:14:21;;;;;;;;;3.00;3.00;;;;;;;;5069646;28;8880;-76
2022/06/24 10:16:50;;;;;;;;;5.00;4.00;;;;;;;;5062518;28;8873;-77
2022/06/24 10:19:21;;;;;;;;;1.00;1.00;;;;;;;;5059447;28;8863;-76
2022/06/24 10:21:49;;;;;;;;;4.80;3.60;;;;;;;;5061949;28;8924;-76
2022/06/24 10:24:17;;;;;;;;;3.00;3.00;;;;;;;;5062495;28;9000;-75
2022/06/24 10:26:47;;;;;;;;;3.20;3.20;;;;;;;;5062843;28;8933;-75
2022/06/24 10:29:23;;;;;;;;;2.60;2.60;;;;;;;;5058304;28;8856;-76
2022/06/24 10:31:58;;;;;;;;;3.20;3.20;;;;;;;;5056487;28;8809;-77
2022/06/24 10:34:37;;;;;;;;;4.60;3.00;;;;;;;;5062069;28;8892;-75
2022/06/24 10:37:23;;;;;;;;;3.00;3.00;;;;;;;;5061933;28;8964;-75
2022/06/24 10:39:52;;;;;;;;;4.60;4.20;;;;;;;;5062302;28;8878;-76
2022/06/24 10:42:21;;;;;;;;;2.40;2.40;;;;;;;;5060921;28;8971;-72
2022/06/24 10:45:00;;;;;;;;;4.00;4.00;;;;;;;;5064468;28;8879;-73
2022/06/24 10:47:46;;;;;;;;;3.80;3.80;;;;;;;;5060723;28;8856;-74
2022/06/24 10:50:18;;;;;;;;;4.00;4.00;;;;;;;;5059784;28;8880;-73
2022/06/24 10:53:02;;;;;;;;;3.60;3.60;;;;;;;;5063568;28;8890;-73
2022/06/24 10:55:40;;;;;;;;;4.20;4.20;;;;;;;;5061219;28;8898;-73
2022/06/24 10:58:10;;;;;;;;;3.00;3.00;;;;;;;;5060666;28;8906;-74
2022/06/24 11:00:53;;;;;;;;;3.00;3.00;;;;;;;;5064364;28;8775;-74
2022/06/24 11:03:28;;;;;;;;;3.40;3.40;;;;;;;;5060697;28;9001;-74
2022/06/24 11:05:55;;;;;;;;;3.60;3.60;;;;;;;;5059238;28;8906;-76
2022/06/24 11:08:24;;;;;;;;;3.00;3.00;;;;;;;;5063331;28;8875;-72
2022/06/24 11:10:53;;;;;;;;;2.80;2.80;;;;;;;;5064981;28;8902;-74
2022/06/24 11:13:23;;;;;;;;;3.80;3.80;;;;;;;;5063240;28;8974;-73
2022/06/24 11:15:55;;;;;;;;;2.80;2.80;;;;;;;;5060757;28;8884;-72
2022/06/24 11:18:24;;;;;;;;;2.80;2.80;;;;;;;;5061903;28;9643;-73
2022/06/24 11:20:54;;;;;;;;;1.60;1.60;;;;;;;;5064673;28;9052;-75
2022/06/24 11:23:22;;;;;;;;;2.20;1.00;;;;;;;;5059036;28;8882;-75
2022/06/24 11:25:52;;;;;;;;;2.40;2.40;;;;;;;;5061070;28;8886;-75
2022/06/24 11:28:24;;;;;;;;;1.60;1.60;;;;;;;;5065422;28;8887;-76
2022/06/24 11:30:55;;;;;;;;;1.00;1.00;;;;;;;;5054164;28;8857;-75
2022/06/24 11:33:23;;;;;;;;;1.00;1.00;;;;;;;;5056012;28;8878;-76
2022/06/24 11:35:52;;;;;;;;;0.80;0.80;;;;;;;;5056931;28;8883;-77
2022/06/24 11:38:21;;;;;;;;;1.60;1.60;;;;;;;;5062434;28;8862;-76
2022/06/24 11:40:50;;;;;;;;;0.00;0.00;;;;;;;;5061090;28;8861;-76
2022/06/24 11:43:18;;;;;;;;;2.60;2.60;;;;;;;;5061650;28;8954;-77
2022/06/24 11:45:47;;;;;;;;;1.80;1.80;;;;;;;;5062811;28;8880;-77
2022/06/24 11:48:21;;;;;;;;;0.00;0.00;;;;;;;;5060628;28;8857;-77
2022/06/24 11:50:50;;;;;;;;;2.80;0.80;;;;;;;;5062392;28;8884;-77
2022/06/24 11:53:18;;;;;;;;;3.80;2.00;;;;;;;;5061213;28;8900;-76
2022/06/24 11:55:51;;;;;;;;;0.80;0.80;;;;;;;;5056782;28;8892;-77
2022/06/24 11:58:22;;;;;;;;;0.00;0.00;;;;;;;;5069515;28;8909;-76
2022/06/24 12:00:50;;;;;;;;;1.60;1.60;;;;;;;;5058903;28;8829;-76
2022/06/24 12:03:23;;;;;;;;;0.00;0.00;;;;;;;;5060361;28;8887;-76
2022/06/24 12:05:51;;;;;;;;;0.20;0.20;;;;;;;;5066156;28;9015;-76
2022/06/24 12:08:19;;;;;;;;;2.00;2.00;;;;;;;;5058755;28;8900;-76
2022/06/24 12:10:53;;;;;;;;;0.00;0.00;;;;;;;;5062772;28;9112;-75
2022/06/24 12:13:29;;;;;;;;;0.00;0.00;;;;;;;;5061414;28;8896;-75
2022/06/24 12:15:57;;;;;;;;;2.00;1.20;;;;;;;;5057798;28;8899;-75
2022/06/24 12:18:28;;;;;;;;;2.00;0.00;;;;;;;;5056944;28;8882;-75
2022/06/24 12:21:00;;;;;;;;;0.60;0.60;;;;;;;;5058101;28;8892;-76
2022/06/24 12:23:33;;;;;;;;;1.20;1.20;;;;;;;;5059738;28;8835;-76
2022/06/24 12:26:07;;;;;;;;;1.40;1.40;;;;;;;;5058517;28;9017;-75
2022/06/24 12:28:34;;;;;;;;;0.00;0.00;;;;;;;;5063501;28;8881;-75
2022/06/24 12:31:04;;;;;;;;;0.80;0.80;;;;;;;;5060829;28;9778;-75
2022/06/24 12:33:34;;;;;;;;;0.00;0.00;;;;;;;;5061311;28;8961;-76
2022/06/24 12:36:10;;;;;;;;;0.60;0.60;;;;;;;;5061085;28;8979;-76
2022/06/24 12:38:39;;;;;;;;;3.20;0.80;;;;;;;;5057499;28;8983;-76
2022/06/24 12:41:12;;;;;;;;;2.20;1.00;;;;;;;;5060255;28;8920;-76
2022/06/24 12:43:55;;;;;;;;;1.40;0.60;;;;;;;;5060176;28;8876;-75
2022/06/24 12:46:24;;;;;;;;;0.80;0.80;;;;;;;;5063302;28;8875;-76
2022/06/24 12:51:46;;;;;;;;;0.80;0.80;;;;;;;;5060930;28;8856;-76
2022/06/24 12:54:15;;;;;;;;;1.20;1.20;;;;;;;;5060708;28;8901;-76
2022/06/24 12:56:43;;;;;;;;;2.20;0.80;;;;;;;;5061609;28;8999;-77
2022/06/24 12:59:11;;;;;;;;;2.00;1.00;;;;;;;;5062052;28;8910;-75
2022/06/24 13:01:53;;;;;;;;;1.00;1.00;;;;;;;;5059707;28;8826;-76
2022/06/24 13:04:23;;;;;;;;;1.00;1.00;;;;;;;;5057418;28;8905;-76
2022/06/24 13:06:50;;;;;;;;;1.00;1.00;;;;;;;;5063290;28;8883;-76
2022/06/24 13:09:18;;;;;;;;;1.00;1.00;;;;;;;;5062125;28;8881;-76
2022/06/24 13:11:45;;;;;;;;;0.00;0.00;;;;;;;;5063047;28;8957;-76
2022/06/24 13:14:12;;;;;;;;;2.40;1.00;;;;;;;;5061406;28;8877;-77
2022/06/24 13:16:40;;;;;;;;;0.00;0.00;;;;;;;;5063271;28;9724;-77
2022/06/24 13:19:07;;;;;;;;;0.60;0.60;;;;;;;;5098743;27;8864;-77
2022/06/24 13:21:36;;;;;;;;;0.40;0.40;;;;;;;;5064042;28;8856;-77
2022/06/24 13:24:03;;;;;;;;;0.00;0.00;;;;;;;;5067236;28;8836;-76
2022/06/24 13:26:31;;;;;;;;;0.80;0.80;;;;;;;;5065302;28;8921;-76
2022/06/24 13:28:59;;;;;;;;;1.20;0.60;;;;;;;;5062245;28;8927;-76
2022/06/24 13:31:26;;;;;;;;;0.20;0.20;;;;;;;;5065544;28;8979;-76
2022/06/24 13:33:54;;;;;;;;;0.80;0.80;;;;;;;;5068116;28;8862;-76
2022/06/24 13:36:21;;;;;;;;;0.80;0.80;;;;;;;;5096572;27;8876;-76
2022/06/24 13:38:50;;;;;;;;;1.00;1.00;;;;;;;;5064391;28;8913;-76
2022/06/24 13:41:17;;;;;;;;;0.60;0.60;;;;;;;;5066012;28;9797;-76
2022/06/24 13:43:45;;;;;;;;;0.60;0.60;;;;;;;;5067309;28;8860;-76
2022/06/24 13:46:12;;;;;;;;;1.60;1.60;;;;;;;;5066064;28;8865;-76
2022/06/24 13:48:40;;;;;;;;;1.00;1.00;;;;;;;;5064735;28;8864;-76
2022/06/24 13:51:07;;;;;;;;;0.60;0.60;;;;;;;;5065349;28;8870;-76
2022/06/24 13:53:37;;;;;;;;;1.60;1.60;;;;;;;;5064075;28;9000;-76
2022/06/24 13:56:07;;;;;;;;;1.00;1.00;;;;;;;;5065968;28;8898;-76
2022/06/24 13:58:36;;;;;;;;;1.80;1.80;;;;;;;;5064564;28;8877;-77
2022/06/24 14:01:03;;;;;;;;;2.60;1.60;;;;;;;;5063624;28;8823;-77
2022/06/24 14:03:30;;;;;;;;;0.80;0.80;;;;;;;;5067821;28;8867;-75
2022/06/24 14:05:59;;;;;;;;;0.00;0.00;;;;;;;;5062770;28;8891;-76
2022/06/24 14:08:26;;;;;;;;;0.80;0.80;;;;;;;;5063851;28;9552;-76
2022/06/24 14:10:54;;;;;;;;;1.60;1.60;;;;;;;;5068373;28;8965;-77
2022/06/24 14:13:22;;;;;;;;;0.20;0.20;;;;;;;;5062434;28;8878;-78
2022/06/24 14:15:50;;;;;;;;;0.80;0.80;;;;;;;;5061965;28;8866;-80
2022/06/24 14:18:18;;;;;;;;;0.00;0.00;;;;;;;;5060880;28;8874;-78
2022/06/24 14:20:45;;;;;;;;;1.00;1.00;;;;;;;;5066074;28;8856;-78
2022/06/24 14:25:57;;;;;;;;;0.00;0.00;;;;;;;;5063750;28;8840;-76
2022/06/24 14:28:26;;;;;;;;;0.00;0.00;;;;;;;;5048567;28;8901;-76
2022/06/24 14:30:53;;;;;;;;;2.40;0.80;;;;;;;;5064531;28;8945;-79
2022/06/24 14:33:21;;;;;;;;;0.20;0.20;;;;;;;;5064340;28;8838;-78
2022/06/24 14:35:49;;;;;;;;;0.00;0.00;;;;;;;;5067390;28;9695;-77
2022/06/24 14:41:01;;;;;;;;;0.80;0.80;;;;;;;;5063502;28;8831;-82
2022/06/24 14:43:29;;;;;;;;;1.00;1.00;;;;;;;;5064346;28;8896;-75
2022/06/24 14:45:57;;;;;;;;;0.00;0.00;;;;;;;;5061676;28;8874;-77
2022/06/24 14:48:24;;;;;;;;;0.00;0.00;;;;;;;;5062205;28;9024;-74
2022/06/24 14:50:52;;;;;;;;;0.00;0.00;;;;;;;;5061545;28;8904;-77
2022/06/24 14:53:20;;;;;;;;;0.00;0.00;;;;;;;;5060077;28;9000;-77
2022/06/24 14:55:47;;;;;;;;;0.00;0.00;;;;;;;;5061229;28;8891;-77
2022/06/24 14:58:15;;;;;;;;;0.00;0.00;;;;;;;;5061012;28;8871;-75
2022/06/24 15:00:44;;;;;;;;;0.00;0.00;;;;;;;;5063454;28;8815;-75
2022/06/24 15:03:11;;;;;;;;;0.20;0.00;;;;;;;;5057465;28;8882;-77
2022/06/24 15:05:38;;;;;;;;;0.80;0.80;;;;;;;;5062660;28;8862;-77
2022/06/24 15:08:06;;;;;;;;;1.00;1.00;;;;;;;;5062854;28;8866;-77
2022/06/24 15:10:34;;;;;;;;;1.00;1.00;;;;;;;;5061938;28;8879;-81
2022/06/24 15:13:02;;;;;;;;;0.20;0.20;;;;;;;;5095894;27;8987;-81
2022/06/24 15:15:29;;;;;;;;;0.40;0.40;;;;;;;;5063522;28;8876;-82
2022/06/24 15:17:58;;;;;;;;;0.80;0.80;;;;;;;;5061214;28;8882;-82
2022/06/24 15:20:25;;;;;;;;;1.00;1.00;;;;;;;;5058773;28;8903;-80